Time;durP1;ratioP1;P1;durP2;ratioP2;P2;SDS_P1;SDS_P2;PMS_P1;PMS_P2;Temp;Humidity;BMP_temperature;BMP_pressure;BME280_temperature;BME280_humidity;BME280_pressure;Samples;Min_cycle;Max_cycle;Signal;HPM_P1;HPM_P2
2023/03/23 00:02:49;;;;;;;33.20;19.10;;;;;;;9.56;77.37;99162.23;217883;1254;140396;-72
2023/03/23 00:07:51;;;;;;;25.00;16.40;;;;;;;9.57;77.30;99157.40;217713;1257;141508;-71
2023/03/23 00:12:56;;;;;;;23.70;15.50;;;;;;;9.58;77.37;99159.59;218434;1259;140091;-71
2023/03/23 00:18:02;;;;;;;20.20;13.00;;;;;;;9.60;77.19;99153.32;217800;1257;140905;-70
2023/03/23 00:23:04;;;;;;;22.00;15.80;;;;;;;9.66;77.18;99160.80;217668;1260;139637;-70
2023/03/23 00:28:07;;;;;;;28.20;16.30;;;;;;;9.66;77.14;99160.75;217798;1258;139460;-71
2023/03/23 00:33:16;;;;;;;20.00;14.10;;;;;;;9.64;77.09;99160.46;217842;1259;140342;-71
2023/03/23 00:38:20;;;;;;;19.70;14.80;;;;;;;9.62;76.98;99160.64;217876;1259;141047;-71
2023/03/23 00:43:24;;;;;;;21.40;14.20;;;;;;;9.59;77.04;99157.07;217568;1260;139810;-70
2023/03/23 00:48:29;;;;;;;28.30;13.40;;;;;;;9.61;77.01;99153.38;217756;1257;142253;-71
2023/03/23 00:53:33;;;;;;;25.40;15.10;;;;;;;9.62;77.04;99151.05;217932;1260;140897;-71
2023/03/23 00:58:36;;;;;;;24.00;13.30;;;;;;;9.58;77.01;99151.89;217651;1259;139958;-71
2023/03/23 01:03:39;;;;;;;25.50;14.40;;;;;;;9.55;77.08;99145.39;217705;1259;139571;-71
2023/03/23 01:08:45;;;;;;;28.40;16.50;;;;;;;9.53;77.06;99139.08;217798;1261;140405;-72
2023/03/23 01:13:49;;;;;;;21.50;14.80;;;;;;;9.53;77.05;99135.73;217676;1260;142029;-73
2023/03/23 01:18:52;;;;;;;30.20;14.80;;;;;;;9.55;77.08;99131.94;220459;1257;140503;-71
2023/03/23 01:23:55;;;;;;;19.20;13.20;;;;;;;9.54;76.96;99123.98;220569;1258;139639;-71
2023/03/23 01:28:59;;;;;;;26.80;16.10;;;;;;;9.53;76.94;99131.05;218053;1257;139278;-70
2023/03/23 01:34:03;;;;;;;25.50;15.30;;;;;;;9.48;76.71;99133.11;217860;1260;140816;-69
2023/03/23 01:39:07;;;;;;;23.20;16.30;;;;;;;9.44;76.79;99131.09;217767;1260;140942;-70
2023/03/23 01:44:16;;;;;;;18.40;13.10;;;;;;;9.37;76.66;99134.27;217752;1260;140030;-70
2023/03/23 01:49:29;;;;;;;22.40;15.60;;;;;;;9.28;76.72;99131.08;217785;1258;139829;-70
2023/03/23 01:54:34;;;;;;;29.70;16.30;;;;;;;9.23;76.83;99128.80;217888;1260;140175;-69
2023/03/23 01:59:38;;;;;;;21.00;13.00;;;;;;;9.10;76.65;99131.85;218389;1257;139635;-71
2023/03/23 02:04:42;;;;;;;24.70;14.10;;;;;;;8.97;76.66;99125.60;217889;1257;140080;-71
2023/03/23 02:09:47;;;;;;;23.90;15.00;;;;;;;8.83;76.83;99127.06;218163;1257;140317;-71
2023/03/23 02:14:52;;;;;;;25.50;16.00;;;;;;;8.74;76.96;99127.09;218104;1257;140790;-70
2023/03/23 02:20:13;;;;;;;21.80;16.40;;;;;;;8.65;77.02;99126.23;217812;1260;140517;-71
2023/03/23 02:25:48;;;;;;;23.20;13.70;;;;;;;8.63;76.94;99124.38;218090;1257;141846;-73
2023/03/23 02:31:11;;;;;;;24.50;15.80;;;;;;;8.62;77.02;99126.55;217907;1258;140279;-72
2023/03/23 02:36:15;;;;;;;26.60;16.20;;;;;;;8.63;77.28;99124.86;218781;1260;139332;-72
2023/03/23 02:41:22;;;;;;;19.50;14.80;;;;;;;8.56;77.27;99124.58;217894;1257;139315;-71
2023/03/23 02:46:44;;;;;;;28.70;15.30;;;;;;;8.53;77.16;99126.33;218506;1260;139709;-71
2023/03/23 02:51:50;;;;;;;20.60;14.00;;;;;;;8.43;76.93;99123.16;218252;1260;140245;-72
2023/03/23 02:56:55;;;;;;;23.20;15.60;;;;;;;8.32;77.04;99123.24;218283;1258;139469;-71
2023/03/23 03:02:13;;;;;;;22.70;17.20;;;;;;;8.23;77.53;99122.52;218811;1257;139734;-73
2023/03/23 03:07:38;;;;;;;18.80;13.10;;;;;;;8.12;77.33;99113.98;219021;1257;140231;-73
2023/03/23 03:12:51;;;;;;;23.40;14.80;;;;;;;8.05;77.55;99111.46;218324;1257;139317;-71
2023/03/23 03:18:06;;;;;;;21.70;15.70;;;;;;;8.05;77.80;99105.13;218551;1257;140445;-69
2023/03/23 03:23:12;;;;;;;21.50;14.30;;;;;;;8.07;78.19;99104.59;220613;1255;139415;-69
2023/03/23 03:28:22;;;;;;;22.20;15.10;;;;;;;8.12;78.38;99099.98;220568;1256;138840;-69
2023/03/23 03:33:27;;;;;;;29.20;14.00;;;;;;;8.22;78.58;99105.50;218887;1257;140224;-68
2023/03/23 03:38:30;;;;;;;20.60;12.50;;;;;;;8.33;78.63;99106.22;218608;1257;140022;-71
2023/03/23 03:43:32;;;;;;;20.60;13.30;;;;;;;8.43;78.95;99107.87;218604;1257;138967;-72
2023/03/23 03:48:35;;;;;;;20.10;14.50;;;;;;;8.49;78.74;99105.43;219039;1256;139933;-69
2023/03/23 03:53:40;;;;;;;23.30;13.60;;;;;;;8.50;78.37;99102.91;217741;1257;140311;-69
2023/03/23 03:58:43;;;;;;;20.20;14.30;;;;;;;8.47;78.40;99102.25;218991;1256;141886;-69
2023/03/23 04:03:46;;;;;;;17.10;10.70;;;;;;;8.48;78.81;99096.31;217806;1257;139123;-70
2023/03/23 04:08:48;;;;;;;15.60;11.60;;;;;;;8.47;78.61;99098.48;217896;1259;141198;-71
2023/03/23 04:13:53;;;;;;;17.90;12.80;;;;;;;8.46;78.65;99093.63;217800;1257;139532;-71
2023/03/23 04:18:57;;;;;;;15.20;11.60;;;;;;;8.51;78.64;99095.31;218055;1260;140568;-70
2023/03/23 04:24:00;;;;;;;13.90;10.60;;;;;;;8.48;78.60;99077.25;217823;1257;139689;-71
2023/03/23 04:29:05;;;;;;;14.80;10.40;;;;;;;8.39;78.54;99073.27;217780;1256;139783;-71
2023/03/23 04:34:08;;;;;;;18.90;11.30;;;;;;;8.37;78.64;99070.52;217685;1259;139868;-72
2023/03/23 04:39:11;;;;;;;21.30;11.10;;;;;;;8.35;78.91;99064.64;218114;1257;139055;-72
2023/03/23 04:44:17;;;;;;;13.80;10.50;;;;;;;8.34;79.11;99064.01;218067;1257;139891;-73
2023/03/23 04:49:21;;;;;;;14.40;9.70;;;;;;;8.37;79.03;99062.02;217418;1257;139299;-72
2023/03/23 04:54:24;;;;;;;15.40;10.40;;;;;;;8.43;78.97;99056.19;219187;1257;139753;-72
2023/03/23 04:59:27;;;;;;;20.60;9.70;;;;;;;8.46;78.82;99052.46;218398;1257;140161;-70
2023/03/23 05:04:30;;;;;;;13.10;7.40;;;;;;;8.46;78.75;99053.31;219123;1257;139212;-70
2023/03/23 05:09:34;;;;;;;17.00;9.30;;;;;;;8.47;78.88;99057.21;219181;1257;140060;-69
2023/03/23 05:14:41;;;;;;;14.70;9.70;;;;;;;8.56;78.87;99053.65;219752;1257;139488;-72
2023/03/23 05:19:47;;;;;;;10.00;8.80;;;;;;;8.65;78.98;99045.89;220110;1257;139814;-70
2023/03/23 05:24:51;;;;;;;12.70;9.50;;;;;;;8.72;79.10;99048.02;217950;1261;139390;-72
2023/03/23 05:29:53;;;;;;;16.40;10.10;;;;;;;8.82;78.97;99053.58;217421;1257;139176;-70
2023/03/23 05:35:00;;;;;;;12.30;8.50;;;;;;;8.90;79.01;99053.00;217043;1261;139633;-70
2023/03/23 05:40:05;;;;;;;13.90;9.00;;;;;;;8.95;79.03;99054.32;217698;1257;140219;-71
2023/03/23 05:45:12;;;;;;;14.70;9.10;;;;;;;8.96;78.84;99055.08;217629;1256;139409;-70
2023/03/23 05:50:16;;;;;;;13.20;9.80;;;;;;;9.00;78.74;99058.25;218310;1259;139594;-68
2023/03/23 05:55:19;;;;;;;16.20;10.40;;;;;;;9.11;79.03;99061.77;218050;1259;139306;-70
2023/03/23 06:00:23;;;;;;;12.00;9.20;;;;;;;9.24;78.88;99071.86;219236;1257;139775;-69
2023/03/23 06:05:25;;;;;;;14.90;8.80;;;;;;;9.41;78.81;99064.21;217708;1257;139387;-70
2023/03/23 06:10:30;;;;;;;20.40;9.20;;;;;;;9.60;78.56;99062.84;218454;1256;139949;-71
2023/03/23 06:15:33;;;;;;;19.80;9.10;;;;;;;9.78;78.48;99061.87;217762;1257;139287;-72
2023/03/23 06:20:37;;;;;;;6.60;5.90;;;;;;;9.94;78.27;99063.08;217879;1257;140333;-70
2023/03/23 06:25:40;;;;;;;11.90;7.60;;;;;;;10.09;78.03;99054.75;217377;1257;142792;-68
2023/03/23 06:30:43;;;;;;;9.90;7.50;;;;;;;10.28;77.65;99054.95;217929;1257;140028;-70
2023/03/23 06:35:48;;;;;;;9.20;6.70;;;;;;;10.39;77.59;99058.97;217869;1259;140124;-71
2023/03/23 06:40:57;;;;;;;9.10;6.00;;;;;;;10.51;77.26;99061.05;219126;1256;139362;-73
2023/03/23 06:46:02;;;;;;;11.50;8.00;;;;;;;10.63;76.93;99054.54;217780;1257;139333;-71
2023/03/23 06:51:06;;;;;;;10.20;7.30;;;;;;;10.74;76.63;99047.00;219538;1256;140596;-74
2023/03/23 06:56:11;;;;;;;12.20;7.00;;;;;;;10.84;76.44;99042.40;217379;1256;1261277;-72
2023/03/23 07:01:14;;;;;;;9.90;8.20;;;;;;;11.04;76.45;99043.92;217798;1259;140454;-74
2023/03/23 07:06:19;;;;;;;9.40;7.80;;;;;;;11.39;76.22;99045.83;217651;1257;139838;-74
2023/03/23 07:11:22;;;;;;;8.10;6.90;;;;;;;11.83;76.20;99049.58;219547;1255;141108;-74
2023/03/23 07:16:26;;;;;;;9.10;6.80;;;;;;;12.20;75.64;99043.30;220659;1256;139930;-75
2023/03/23 07:21:29;;;;;;;8.80;6.90;;;;;;;12.70;75.05;99048.13;220413;1256;139860;-73
2023/03/23 07:26:35;;;;;;;8.30;6.80;;;;;;;13.22;74.48;99043.84;219512;1256;140012;-74
2023/03/23 07:31:38;;;;;;;7.30;6.20;;;;;;;13.58;73.88;99040.16;217734;1255;139530;-74
2023/03/23 07:36:41;;;;;;;6.90;6.10;;;;;;;13.79;72.96;99034.96;218312;1256;139916;-72
2023/03/23 07:41:45;;;;;;;8.70;6.40;;;;;;;13.93;72.57;99030.22;217796;1259;138791;-72
2023/03/23 07:46:48;;;;;;;11.70;6.80;;;;;;;14.04;72.02;99034.02;218072;1256;139607;-73
2023/03/23 07:51:51;;;;;;;5.30;3.90;;;;;;;14.21;71.67;99024.23;217489;1257;139798;-74
2023/03/23 07:56:54;;;;;;;6.80;6.10;;;;;;;14.48;71.04;99021.56;218893;1256;140153;-77
2023/03/23 08:01:58;;;;;;;6.40;4.90;;;;;;;14.80;70.47;99018.44;217796;1257;139988;-77
2023/03/23 08:07:02;;;;;;;8.60;6.00;;;;;;;15.12;70.16;99011.59;217757;1257;139631;-77
2023/03/23 08:12:05;;;;;;;15.50;6.00;;;;;;;15.33;69.21;99017.14;218202;1255;139327;-74
2023/03/23 08:17:11;;;;;;;7.00;5.10;;;;;;;15.37;68.37;99019.52;218240;1257;139977;-77
2023/03/23 08:22:16;;;;;;;11.60;5.30;;;;;;;15.31;67.82;99022.48;217779;1256;140292;-72
2023/03/23 08:27:19;;;;;;;6.70;5.40;;;;;;;15.31;67.53;99027.36;217794;1259;140477;-70
2023/03/23 08:32:24;;;;;;;8.90;5.40;;;;;;;15.43;67.13;99016.73;217757;1259;140025;-73
2023/03/23 08:37:26;;;;;;;6.80;5.80;;;;;;;15.54;66.88;99016.90;218879;1255;140699;-74
2023/03/23 08:42:29;;;;;;;13.30;6.10;;;;;;;15.72;66.80;99010.10;217522;1256;139886;-76
2023/03/23 08:47:33;;;;;;;7.20;5.10;;;;;;;16.12;66.83;99005.06;217758;1257;140027;-73
2023/03/23 08:52:37;;;;;;;7.70;4.50;;;;;;;16.61;66.64;99002.13;218563;1256;141215;-79
2023/03/23 08:57:42;;;;;;;6.30;5.00;;;;;;;16.98;65.61;98989.40;217664;1256;139779;-74
2023/03/23 09:02:48;;;;;;;3.60;3.30;;;;;;;17.36;65.21;98985.80;217909;1259;139883;-72
2023/03/23 09:07:53;;;;;;;6.80;5.00;;;;;;;17.72;64.30;98980.98;219150;1256;139530;-74
2023/03/23 09:12:57;;;;;;;3.70;3.40;;;;;;;17.85;63.43;98979.96;220404;1256;139567;-77
2023/03/23 09:18:03;;;;;;;4.80;3.50;;;;;;;18.10;62.80;98979.55;217884;1259;140638;-74
2023/03/23 09:23:08;;;;;;;4.20;3.30;;;;;;;18.16;61.43;98980.48;219058;1255;140317;-77
2023/03/23 09:28:11;;;;;;;9.70;3.40;;;;;;;18.06;60.73;98977.79;218122;1256;139641;-81
2023/03/23 09:33:15;;;;;;;5.20;3.80;;;;;;;18.18;60.66;98974.86;217588;1257;139862;-70
2023/03/23 09:38:19;;;;;;;5.40;3.70;;;;;;;18.38;60.35;98971.61;217934;1257;138896;-71
2023/03/23 09:43:44;;;;;;;7.20;2.70;;;;;;;18.63;59.85;98972.20;218124;1257;140587;-74
2023/03/23 09:48:51;;;;;;;;;;;;;;;18.62;58.92;98967.25;217881;1257;140275;-70
2023/03/23 09:54:03;;;;;;;3.80;2.40;;;;;;;18.52;58.39;98966.37;218032;1257;126910;-72
2023/03/23 09:59:17;;;;;;;3.40;3.10;;;;;;;18.53;57.86;98963.48;217723;1257;139790;-76
2023/03/23 10:04:41;;;;;;;4.90;3.00;;;;;;;18.58;57.48;98963.12;217827;1259;138978;-78
2023/03/23 10:09:47;;;;;;;3.50;3.20;;;;;;;18.62;56.93;98965.52;217559;1257;140894;-76
2023/03/23 10:15:12;;;;;;;5.50;3.80;;;;;;;18.96;56.78;98962.73;217716;1257;139863;-75
2023/03/23 10:20:28;;;;;;;3.10;2.80;;;;;;;19.42;56.61;98956.69;217931;1257;140245;-72
2023/03/23 10:25:37;;;;;;;6.80;3.50;;;;;;;19.69;56.07;98947.91;217907;1257;139114;-81
2023/03/23 10:31:02;;;;;;;4.80;2.90;;;;;;;19.50;54.75;98946.85;217690;1257;139016;-77
2023/03/23 10:36:27;;;;;;;7.30;3.70;;;;;;;19.48;54.64;98942.96;217783;1257;138888;-78
2023/03/23 10:41:30;;;;;;;5.20;3.30;;;;;;;19.59;54.16;98939.92;218962;1256;139667;-80
2023/03/23 10:46:50;;;;;;;4.10;2.70;;;;;;;19.71;53.96;98950.56;218160;1257;139438;-69
2023/03/23 10:52:16;;;;;;;4.00;2.90;;;;;;;19.86;53.61;98938.35;219595;1256;139434;-75
2023/03/23 10:57:29;;;;;;;5.40;3.70;;;;;;;20.00;53.26;98930.96;218266;1259;141082;-76
2023/03/23 11:02:42;;;;;;;4.40;3.40;;;;;;;20.21;53.01;98920.02;218811;1256;140668;-74
2023/03/23 11:07:56;;;;;;;10.50;4.50;;;;;;;20.13;51.97;98931.95;218208;1259;139807;-72
2023/03/23 11:13:00;;;;;;;6.00;3.30;;;;;;;19.99;51.76;98939.10;219537;1256;139241;-70
2023/03/23 11:18:09;;;;;;;8.90;3.90;;;;;;;19.87;51.53;98946.59;217923;1257;139146;-69
2023/03/23 11:23:20;;;;;;;4.40;3.70;;;;;;;19.86;51.43;98928.56;218258;1255;139893;-73
2023/03/23 11:28:35;;;;;;;4.50;3.30;;;;;;;19.80;51.37;98930.08;218389;1258;139545;-71
2023/03/23 11:33:53;;;;;;;11.20;4.60;;;;;;;19.72;51.36;98928.30;217696;1259;139206;-71
2023/03/23 11:38:57;;;;;;;6.60;4.70;;;;;;;19.58;51.67;98932.38;218510;1256;140224;-70
2023/03/23 11:44:10;;;;;;;5.50;3.40;;;;;;;19.39;51.78;98945.41;217574;1257;138841;-67
2023/03/23 11:49:25;;;;;;;3.90;3.60;;;;;;;19.16;51.22;98955.26;217843;1256;138718;-69
2023/03/23 11:54:44;;;;;;;5.50;4.10;;;;;;;18.87;51.28;98955.36;217563;1259;139826;-71
2023/03/23 11:59:52;;;;;;;3.80;3.50;;;;;;;18.77;51.30;98962.14;217560;1257;139543;-69
2023/03/23 12:05:23;;;;;;;8.20;3.60;;;;;;;18.58;51.41;98970.19;217659;1259;139897;-72
2023/03/23 12:10:33;;;;;;;3.90;3.20;;;;;;;18.23;51.43;98969.89;217888;1255;139366;-70
2023/03/23 12:15:50;;;;;;;7.40;3.70;;;;;;;18.01;52.02;98973.01;217958;1254;139314;-70
2023/03/23 12:21:07;;;;;;;3.90;3.50;;;;;;;17.77;51.99;98975.59;217644;1256;138916;-71
2023/03/23 12:26:16;;;;;;;9.70;8.80;;;;;;;17.61;52.39;98968.02;218695;1259;139599;-72
2023/03/23 12:31:30;;;;;;;19.70;17.80;;;;;;;17.54;52.86;98970.59;217992;1258;139240;-71
2023/03/23 12:36:47;;;;;;;5.30;4.90;;;;;;;17.61;53.28;98969.70;219144;1254;139767;-73
2023/03/23 12:42:06;;;;;;;9.50;7.90;;;;;;;17.66;53.24;98962.23;218859;1256;141284;-73
2023/03/23 12:47:24;;;;;;;7.20;6.30;;;;;;;17.58;53.19;98961.67;217637;1259;139862;-70
2023/03/23 12:52:35;;;;;;;6.30;4.40;;;;;;;17.54;53.47;98960.81;218236;1257;139188;-73
2023/03/23 12:57:54;;;;;;;14.10;11.10;;;;;;;17.58;53.94;98957.34;218751;1257;140553;-75
2023/03/23 13:03:16;;;;;;;7.10;3.30;;;;;;;17.61;53.84;98954.11;217771;1257;139162;-77
2023/03/23 13:08:24;;;;;;;16.20;14.70;;;;;;;17.57;53.99;98954.08;217837;1259;139071;-73
2023/03/23 13:13:47;;;;;;;12.60;11.40;;;;;;;17.53;53.65;98954.54;218253;1259;141604;-74
2023/03/23 13:18:57;;;;;;;36.50;33.20;;;;;;;17.59;53.34;98958.25;217785;1257;139880;-72
2023/03/23 13:24:04;;;;;;;21.40;19.60;;;;;;;17.54;53.05;98966.05;217815;1259;139493;-74
2023/03/23 13:29:13;;;;;;;19.30;17.30;;;;;;;17.39;52.90;98968.98;217836;1257;139911;-74
2023/03/23 13:34:25;;;;;;;14.20;13.00;;;;;;;17.26;52.91;98976.27;218069;1257;140010;-69
2023/03/23 13:39:33;;;;;;;14.20;10.70;;;;;;;17.10;52.95;98975.95;218183;1257;140067;-72
2023/03/23 13:44:51;;;;;;;6.10;5.20;;;;;;;16.98;52.90;98985.31;217818;1257;139969;-80
2023/03/23 13:49:57;;;;;;;11.50;10.40;;;;;;;16.90;53.18;98983.29;218743;1256;140159;-67
2023/03/23 13:55:16;;;;;;;3.90;3.40;;;;;;;16.91;53.36;98981.82;217801;1257;139826;-67
2023/03/23 14:00:47;;;;;;;5.50;5.10;;;;;;;17.00;53.59;98989.97;217652;1259;139891;-68
2023/03/23 14:06:01;;;;;;;9.60;8.70;;;;;;;17.13;53.59;98990.38;218066;1257;139209;-70
2023/03/23 14:11:21;;;;;;;5.20;4.70;;;;;;;17.16;53.41;98994.74;218225;1257;141159;-68
2023/03/23 14:16:48;;;;;;;4.40;4.00;;;;;;;17.11;53.31;99001.31;217610;1257;139408;-70
2023/03/23 14:22:00;;;;;;;14.40;7.30;;;;;;;16.98;53.17;99007.48;217798;1259;139140;-69
2023/03/23 14:27:09;;;;;;;12.30;11.30;;;;;;;16.86;53.31;99005.53;217846;1259;140042;-69
2023/03/23 14:32:18;;;;;;;20.70;10.80;;;;;;;16.76;53.42;99001.02;217670;1257;139296;-69
2023/03/23 14:37:21;;;;;;;5.70;5.10;;;;;;;16.68;53.42;98997.95;217447;1257;140060;-69
2023/03/23 14:42:31;;;;;;;11.00;9.20;;;;;;;16.63;53.94;98996.45;218489;1257;140355;-70
2023/03/23 14:47:42;;;;;;;2.70;2.50;;;;;;;16.61;54.08;98990.02;217940;1257;139553;-69
2023/03/23 14:52:48;;;;;;;6.30;4.10;;;;;;;16.58;54.34;98987.41;217839;1259;139830;-68
2023/03/23 14:57:51;;;;;;;4.00;3.70;;;;;;;16.56;54.45;98985.95;217764;1256;139987;-69
2023/03/23 15:02:58;;;;;;;5.70;5.20;;;;;;;16.49;54.58;98986.42;218212;1256;139141;-70
2023/03/23 15:08:05;;;;;;;30.30;25.30;;;;;;;16.46;54.68;98987.81;218256;1257;140048;-68
2023/03/23 15:13:12;;;;;;;4.30;3.40;;;;;;;16.37;54.58;98990.05;218169;1257;140133;-69
2023/03/23 15:18:32;;;;;;;;;;;;;;;16.29;54.68;98994.02;218376;1259;140275;-68
2023/03/23 15:23:40;;;;;;;9.90;5.50;;;;;;;16.20;54.99;98999.58;217956;1256;125289;-69
2023/03/23 15:28:43;;;;;;;10.50;8.20;;;;;;;16.14;55.04;99003.54;218378;1257;138904;-70
2023/03/23 15:33:45;;;;;;;5.00;4.60;;;;;;;16.05;55.31;98999.29;218008;1257;139110;-68
2023/03/23 15:38:48;;;;;;;9.70;5.50;;;;;;;15.97;55.72;99005.03;217617;1259;139736;-67
2023/03/23 15:43:57;;;;;;;10.70;9.80;;;;;;;15.87;55.79;99012.95;218427;1259;139686;-71
2023/03/23 15:48:59;;;;;;;20.50;18.60;;;;;;;15.78;55.82;99023.15;217876;1257;139577;-72
2023/03/23 15:54:02;;;;;;;28.70;26.00;;;;;;;15.63;55.93;99015.41;217839;1257;140070;-71
2023/03/23 15:59:04;;;;;;;6.80;5.90;;;;;;;15.53;56.53;99020.83;218054;1255;221851;-73
2023/03/23 16:04:13;;;;;;;14.50;13.20;;;;;;;15.43;56.64;99023.81;218533;1257;139479;-71
2023/03/23 16:09:19;;;;;;;12.50;9.00;;;;;;;15.35;57.12;99020.13;218287;1257;140864;-70
2023/03/23 16:14:23;;;;;;;16.50;14.80;;;;;;;15.28;57.33;99011.77;217794;1257;139731;-71
2023/03/23 16:19:26;;;;;;;6.00;4.30;;;;;;;15.25;57.55;99009.17;217670;1259;139813;-70
2023/03/23 16:24:30;;;;;;;3.90;2.70;;;;;;;15.22;57.65;99019.78;218299;1256;138954;-74
2023/03/23 16:29:36;;;;;;;8.20;6.20;;;;;;;15.11;57.72;99010.80;217763;1257;139017;-71
2023/03/23 16:35:00;;;;;;;11.30;7.30;;;;;;;14.99;57.84;99009.17;217712;1257;139545;-72
2023/03/23 16:40:06;;;;;;;9.70;7.20;;;;;;;14.82;58.09;99010.45;219015;1257;139013;-73
2023/03/23 16:45:12;;;;;;;22.00;12.80;;;;;;;14.72;58.46;99010.83;218767;1257;139537;-71
2023/03/23 16:50:17;;;;;;;10.90;6.90;;;;;;;14.64;58.77;99011.98;218426;1257;140615;-73
2023/03/23 16:55:21;;;;;;;5.50;4.60;;;;;;;14.55;58.84;99011.17;217871;1257;139576;-73
2023/03/23 17:00:26;;;;;;;5.30;4.50;;;;;;;14.46;59.16;99017.70;220057;1257;140752;-72
2023/03/23 17:05:30;;;;;;;4.60;4.10;;;;;;;14.40;59.48;99022.02;217810;1259;140574;-69
2023/03/23 17:10:37;;;;;;;7.60;2.80;;;;;;;14.35;59.61;99026.70;220531;1257;140459;-69
2023/03/23 17:15:42;;;;;;;5.90;2.50;;;;;;;14.33;59.85;99029.13;219328;1257;141848;-74
2023/03/23 17:20:52;;;;;;;13.00;3.10;;;;;;;14.29;60.07;99038.43;219223;1259;140264;-74
2023/03/23 17:25:56;;;;;;;4.10;3.00;;;;;;;14.26;60.37;99045.40;218662;1257;139373;-71
2023/03/23 17:31:00;;;;;;;4.30;2.70;;;;;;;14.26;60.41;99056.83;217297;1259;139146;-75
2023/03/23 17:36:05;;;;;;;2.70;2.40;;;;;;;14.21;60.56;99062.05;217724;1259;138623;-70
2023/03/23 17:41:10;;;;;;;4.20;3.50;;;;;;;14.15;60.71;99068.02;219142;1259;138951;-72
2023/03/23 17:46:14;;;;;;;5.10;3.00;;;;;;;14.11;60.76;99075.80;218086;1259;140116;-73
2023/03/23 17:51:18;;;;;;;3.30;2.90;;;;;;;14.09;61.08;99080.14;217655;1259;139702;-69
2023/03/23 17:56:22;;;;;;;5.40;3.00;;;;;;;14.07;60.85;99070.35;218116;1259;139554;-70
2023/03/23 18:01:26;;;;;;;7.00;5.00;;;;;;;14.03;61.34;99070.80;217492;1257;140217;-70
2023/03/23 18:06:31;;;;;;;9.10;6.30;;;;;;;13.96;61.66;99067.45;218445;1257;142586;-71
2023/03/23 18:11:37;;;;;;;8.00;7.20;;;;;;;13.90;61.86;99072.44;217766;1256;139094;-68
2023/03/23 18:16:41;;;;;;;10.10;6.70;;;;;;;13.84;61.95;99087.30;217758;1259;140123;-68
2023/03/23 18:21:47;;;;;;;12.90;8.40;;;;;;;13.78;62.44;99101.60;217406;1257;140688;-71
2023/03/23 18:26:51;;;;;;;8.40;5.40;;;;;;;13.73;62.61;99102.86;217853;1260;139913;-71
2023/03/23 18:31:56;;;;;;;10.30;7.80;;;;;;;13.67;62.86;99099.55;218962;1259;139946;-67
2023/03/23 18:37:02;;;;;;;11.60;7.40;;;;;;;13.64;63.38;99099.50;217767;1258;141065;-68
2023/03/23 18:42:06;;;;;;;5.90;4.30;;;;;;;13.55;63.59;99088.36;218049;1258;138956;-77
2023/03/23 18:47:11;;;;;;;7.30;6.50;;;;;;;13.53;64.01;99092.02;219438;1257;139836;-72
2023/03/23 18:52:17;;;;;;;16.90;7.70;;;;;;;13.49;64.21;99096.30;219076;1258;139011;-73
2023/03/23 18:57:22;;;;;;;8.40;5.40;;;;;;;13.43;64.22;99099.47;219722;1257;461061;-70
2023/03/23 19:02:28;;;;;;;12.60;4.40;;;;;;;13.36;64.45;99093.58;220700;1259;139881;-72
2023/03/23 19:07:32;;;;;;;16.00;9.90;;;;;;;13.30;64.52;99092.09;219229;1257;140742;-70
2023/03/23 19:12:36;;;;;;;10.80;7.80;;;;;;;13.24;64.89;99091.80;219751;1259;140325;-71
2023/03/23 19:17:40;;;;;;;10.30;7.10;;;;;;;13.22;64.93;99096.24;220054;1256;140586;-71
2023/03/23 19:22:44;;;;;;;10.60;6.30;;;;;;;13.26;64.93;99102.14;218099;1257;140491;-71
2023/03/23 19:27:49;;;;;;;9.30;6.00;;;;;;;13.24;65.16;99098.45;217479;1258;139639;-68
2023/03/23 19:33:14;;;;;;;8.70;6.20;;;;;;;13.20;65.42;99095.60;217842;1260;139298;-74
2023/03/23 19:38:21;;;;;;;77.20;37.10;;;;;;;13.14;65.25;99088.69;217680;1254;139126;-69
2023/03/23 19:43:26;;;;;;;152.20;53.10;;;;;;;13.12;65.21;99101.25;217761;1259;139229;-69
2023/03/23 19:48:32;;;;;;;21.40;10.90;;;;;;;13.09;65.44;99098.52;217696;1260;139867;-69
2023/03/23 19:53:37;;;;;;;10.80;7.20;;;;;;;13.07;65.44;99106.02;217543;1260;140062;-70
2023/03/23 19:58:43;;;;;;;8.20;6.50;;;;;;;13.05;65.08;99105.85;217497;1259;140293;-70
2023/03/23 20:03:51;;;;;;;9.60;5.00;;;;;;;13.02;65.28;99105.42;218239;1260;140809;-71
2023/03/23 20:08:58;;;;;;;6.60;4.00;;;;;;;13.02;65.08;99100.45;217929;1258;139559;-69
2023/03/23 20:14:04;;;;;;;11.70;4.80;;;;;;;13.07;65.18;99101.95;217762;1260;139748;-69
2023/03/23 20:19:09;;;;;;;4.30;3.10;;;;;;;13.11;65.15;99083.98;217533;1260;139743;-68
2023/03/23 20:24:13;;;;;;;3.40;2.90;;;;;;;13.16;65.08;99090.23;218557;1259;139771;-73
2023/03/23 20:29:17;;;;;;;7.10;3.80;;;;;;;13.20;65.05;99090.95;217667;1260;139133;-73
2023/03/23 20:34:30;;;;;;;2.70;2.30;;;;;;;13.21;65.25;99093.35;217708;1257;139695;-67
2023/03/23 20:39:40;;;;;;;3.30;3.00;;;;;;;13.19;65.33;99101.48;217693;1258;140675;-71
2023/03/23 20:44:46;;;;;;;4.40;3.70;;;;;;;13.17;65.17;99101.11;217659;1259;140101;-71
2023/03/23 20:49:54;;;;;;;6.30;4.60;;;;;;;13.15;65.16;99103.94;218354;1257;139052;-67
2023/03/23 20:55:01;;;;;;;4.70;3.90;;;;;;;13.12;65.23;99117.27;220184;1257;139206;-69
2023/03/23 21:00:08;;;;;;;3.60;3.10;;;;;;;13.10;65.23;99116.51;220488;1256;139643;-70
2023/03/23 21:05:12;;;;;;;9.90;3.30;;;;;;;13.15;65.24;99116.20;219881;1257;140045;-68
2023/03/23 21:10:16;;;;;;;4.90;3.60;;;;;;;13.19;65.59;99117.97;217837;1259;140325;-70
2023/03/23 21:15:21;;;;;;;5.30;3.50;;;;;;;13.15;65.67;99116.09;218645;1257;139978;-79
2023/03/23 21:20:26;;;;;;;7.80;3.90;;;;;;;13.07;65.68;99113.23;218606;1257;140253;-72
2023/03/23 21:25:33;;;;;;;5.10;4.00;;;;;;;12.93;65.90;99107.96;218726;1257;222519;-71
2023/03/23 21:30:44;;;;;;;9.10;4.10;;;;;;;12.80;66.03;99108.16;217547;1260;139281;-72
2023/03/23 21:35:50;;;;;;;7.50;3.80;;;;;;;12.68;66.06;99114.29;217540;1259;140385;-68
2023/03/23 21:40:57;;;;;;;10.00;3.70;;;;;;;12.56;66.33;99123.23;217697;1256;139020;-71
2023/03/23 21:46:04;;;;;;;10.10;5.00;;;;;;;12.45;66.47;99122.98;218798;1258;140041;-69
2023/03/23 21:51:13;;;;;;;5.40;4.70;;;;;;;12.39;66.60;99114.66;217511;1258;141042;-69
2023/03/23 21:56:18;;;;;;;6.50;4.00;;;;;;;12.34;66.98;99118.81;217546;1259;139398;-70
2023/03/23 22:01:23;;;;;;;6.40;5.10;;;;;;;12.26;67.03;99124.60;217686;1254;138940;-70
2023/03/23 22:06:29;;;;;;;8.40;6.60;;;;;;;12.19;67.16;99131.58;217970;1258;139837;-71
2023/03/23 22:11:36;;;;;;;;;;;;;;;12.10;67.44;99134.46;218594;1260;208758;-68
2023/03/23 22:16:42;;;;;;;12.80;6.10;;;;;;;11.95;67.56;99140.30;217785;1258;125949;-69
2023/03/23 22:21:46;;;;;;;6.00;4.20;;;;;;;11.85;67.76;99130.69;217593;1257;139657;-68
2023/03/23 22:26:51;;;;;;;11.10;5.30;;;;;;;11.86;67.82;99131.50;218048;1259;139969;-68
2023/03/23 22:31:55;;;;;;;9.30;5.40;;;;;;;11.91;67.68;99128.96;217736;1257;140472;-75
2023/03/23 22:36:59;;;;;;;11.80;5.80;;;;;;;11.88;67.91;99135.89;217696;1259;140189;-71
2023/03/23 22:42:04;;;;;;;5.60;4.70;;;;;;;11.84;67.96;99138.48;218997;1255;140382;-72
2023/03/23 22:47:09;;;;;;;16.50;5.20;;;;;;;11.77;67.89;99140.98;217746;1260;143111;-74
2023/03/23 22:52:13;;;;;;;7.80;4.70;;;;;;;11.70;67.97;99142.71;220549;1256;140104;-68
2023/03/23 22:57:20;;;;;;;5.70;4.40;;;;;;;11.64;67.99;99143.46;219949;1257;140738;-71
2023/03/23 23:02:25;;;;;;;9.00;5.50;;;;;;;11.65;68.26;99145.35;218810;1255;139548;-68
2023/03/23 23:07:30;;;;;;;7.20;5.40;;;;;;;11.61;68.12;99146.98;217815;1259;140542;-67
2023/03/23 23:12:35;;;;;;;8.70;4.80;;;;;;;11.58;68.52;99148.04;219797;1257;140378;-66
2023/03/23 23:17:41;;;;;;;7.80;4.80;;;;;;;11.53;68.47;99150.98;217660;1258;139282;-73
2023/03/23 23:22:47;;;;;;;7.40;5.40;;;;;;;11.45;68.53;99150.60;217879;1257;141118;-73
2023/03/23 23:27:51;;;;;;;10.80;6.40;;;;;;;11.29;68.38;99147.95;217549;1257;139755;-73